Terminal Aerodrome Forecast
Issued by NWS Midland/Odessa, TX

Home | Current Version | Previous Version | Text Only | Print | Product List | Glossary On
Versions: 1 2 3 4 5 6 7 8 9 10 11 12 13 14 15 16
324
FTUS44 KMAF 291124
TAFMAF
TAF
KMAF 291124Z 2912/3012 22015G22KT P6SM SKC
     FM291500 27020G28KT P6SM SKC
     FM300100 27010KT P6SM SKC=

USA.gov is the U.S. government's official web portal to all federal, state and local government web resources and services.